createdAt,value
2023-01-23T00:00:27.220Z,12.23
2023-01-23T00:02:54.502Z,13.15
2023-01-23T00:05:21.856Z,12.30
2023-01-23T00:07:49.275Z,12.23
2023-01-23T00:10:17.067Z,12.38
2023-01-23T00:12:46.095Z,12.50
2023-01-23T00:15:13.975Z,13.02
2023-01-23T00:17:42.099Z,12.68
2023-01-23T00:20:13.422Z,12.60
2023-01-23T00:22:41.013Z,12.32
2023-01-23T00:25:08.670Z,13.27
2023-01-23T00:27:35.966Z,12.07
2023-01-23T00:30:04.666Z,12.68
2023-01-23T00:32:32.046Z,12.70
2023-01-23T00:35:02.649Z,11.80
2023-01-23T00:37:30.012Z,11.48
2023-01-23T00:39:57.361Z,12.23
2023-01-23T00:42:24.833Z,11.48
2023-01-23T00:44:52.167Z,11.15
2023-01-23T00:47:19.459Z,12.35
2023-01-23T00:49:48.702Z,11.60
2023-01-23T00:52:15.975Z,11.80
2023-01-23T00:54:43.451Z,12.23
2023-01-23T00:57:10.852Z,12.02
2023-01-23T00:59:38.184Z,11.63
2023-01-23T01:02:05.514Z,11.57
2023-01-23T01:04:33.039Z,11.70
2023-01-23T01:07:03.494Z,11.80
2023-01-23T01:09:30.957Z,10.80
2023-01-23T01:11:58.703Z,12.15
2023-01-23T01:14:26.000Z,12.00
2023-01-23T01:16:53.393Z,12.50
2023-01-23T01:19:21.252Z,12.70
2023-01-23T01:21:48.518Z,12.45
2023-01-23T01:24:15.944Z,11.80
2023-01-23T01:26:43.365Z,11.52
2023-01-23T01:29:10.614Z,12.70
2023-01-23T01:31:37.890Z,11.20
2023-01-23T01:34:05.182Z,12.98
2023-01-23T01:36:32.450Z,11.68
2023-01-23T01:38:59.825Z,13.10
2023-01-23T01:41:27.999Z,12.50
2023-01-23T01:43:57.420Z,12.73
2023-01-23T01:46:27.361Z,12.07
2023-01-23T01:49:15.243Z,12.15
2023-01-23T01:52:14.912Z,12.43
2023-01-23T01:54:46.204Z,13.05
2023-01-23T01:57:38.060Z,12.52
2023-01-23T02:00:10.909Z,12.10
2023-01-23T02:02:49.764Z,13.98
2023-01-23T02:05:30.354Z,11.82
2023-01-23T02:08:05.885Z,13.10
2023-01-23T02:10:35.141Z,12.90
2023-01-23T02:13:31.448Z,13.18
2023-01-23T02:16:01.226Z,14.05
2023-01-23T02:18:31.883Z,12.27
2023-01-23T02:21:05.945Z,12.50
2023-01-23T02:23:48.573Z,14.45
2023-01-23T02:26:27.950Z,14.25
2023-01-23T02:28:56.297Z,12.85
2023-01-23T02:31:27.902Z,13.77
2023-01-23T02:33:58.376Z,13.43
2023-01-23T02:39:09.025Z,13.32
2023-01-23T02:41:41.037Z,13.57
2023-01-23T02:44:32.530Z,13.43
2023-01-23T02:47:08.400Z,12.88
2023-01-23T02:49:35.922Z,13.25
2023-01-23T02:52:06.928Z,13.60
2023-01-23T02:54:36.133Z,13.15
2023-01-23T02:57:03.718Z,13.98
2023-01-23T02:59:50.002Z,13.00
2023-01-23T03:02:17.603Z,12.40
2023-01-23T03:04:44.881Z,13.05
2023-01-23T03:07:12.173Z,14.10
2023-01-23T03:09:39.905Z,13.88
2023-01-23T03:12:07.744Z,14.00
2023-01-23T03:14:35.155Z,13.93
2023-01-23T03:17:02.365Z,13.48
2023-01-23T03:19:34.115Z,13.13
2023-01-23T03:22:01.386Z,12.88
2023-01-23T03:24:28.802Z,13.55
2023-01-23T03:26:56.246Z,13.00
2023-01-23T03:29:45.260Z,12.63
2023-01-23T03:32:15.760Z,12.77
2023-01-23T03:34:44.782Z,13.10
2023-01-23T03:37:12.652Z,12.65
2023-01-23T03:40:01.164Z,13.27
2023-01-23T03:42:28.287Z,12.98
2023-01-23T03:44:57.800Z,12.05
2023-01-23T03:49:55.984Z,12.27
2023-01-23T03:52:24.330Z,13.52
2023-01-23T03:54:51.780Z,12.35
2023-01-23T03:57:19.351Z,13.25
2023-01-23T04:00:05.514Z,12.82
2023-01-23T04:02:45.440Z,11.68
2023-01-23T04:05:14.423Z,12.05
2023-01-23T04:07:41.576Z,12.63
2023-01-23T04:10:10.767Z,12.77
2023-01-23T04:12:39.640Z,12.63
2023-01-23T04:15:08.154Z,14.23
2023-01-23T04:17:35.218Z,13.60
2023-01-23T04:20:04.389Z,14.07
2023-01-23T04:22:32.095Z,13.40
2023-01-23T04:24:59.228Z,13.32
2023-01-23T04:27:26.287Z,12.90
2023-01-23T04:29:55.454Z,13.68
2023-01-23T04:32:22.560Z,12.90
2023-01-23T04:34:49.694Z,12.77
2023-01-23T04:37:17.743Z,12.63
2023-01-23T04:39:45.943Z,14.55
2023-01-23T04:42:13.999Z,13.27
2023-01-23T04:44:52.313Z,13.27
2023-01-23T04:47:39.415Z,13.30
2023-01-23T04:50:10.547Z,13.35
2023-01-23T04:52:39.139Z,14.13
2023-01-23T04:55:06.839Z,14.27
2023-01-23T04:57:33.864Z,14.18
2023-01-23T05:00:20.133Z,12.85
2023-01-23T05:02:48.706Z,13.13
2023-01-23T05:05:21.402Z,13.63
2023-01-23T05:07:51.525Z,12.30
2023-01-23T05:10:19.385Z,13.00
2023-01-23T05:12:48.120Z,11.90
2023-01-23T05:15:15.514Z,12.60
2023-01-23T05:17:44.725Z,12.70
2023-01-23T05:20:13.477Z,13.60
2023-01-23T05:22:52.777Z,13.80
2023-01-23T05:25:27.126Z,13.55
2023-01-23T05:27:55.684Z,13.77
2023-01-23T05:30:23.960Z,13.23
2023-01-23T05:32:55.765Z,13.68
2023-01-23T05:35:22.871Z,12.43
2023-01-23T05:37:53.794Z,13.00
2023-01-23T05:40:23.847Z,13.95
2023-01-23T05:43:23.239Z,13.10
2023-01-23T05:46:17.180Z,14.40
2023-01-23T05:48:51.916Z,13.10
2023-01-23T05:51:21.347Z,13.48
2023-01-23T05:53:48.971Z,14.32
2023-01-23T05:56:17.714Z,12.98
2023-01-23T05:59:05.529Z,13.75
2023-01-23T06:01:58.786Z,13.10
2023-01-23T06:04:55.840Z,12.75
2023-01-23T06:07:37.798Z,13.30
2023-01-23T06:10:09.839Z,12.90
2023-01-23T06:12:37.575Z,14.10
2023-01-23T06:15:05.462Z,12.43
2023-01-23T06:17:32.928Z,12.82
2023-01-23T06:20:00.087Z,14.63
2023-01-23T06:22:28.650Z,12.85
2023-01-23T06:25:11.038Z,14.30
2023-01-23T06:27:38.340Z,14.23
2023-01-23T06:30:08.799Z,13.15
2023-01-23T06:32:41.860Z,12.98
2023-01-23T06:35:10.644Z,14.73
2023-01-23T06:37:40.835Z,14.85
2023-01-23T06:40:13.546Z,14.02
2023-01-23T06:42:45.594Z,15.88
2023-01-23T06:45:13.000Z,16.27
2023-01-23T06:47:40.093Z,15.07
2023-01-23T06:50:08.299Z,15.18
2023-01-23T06:52:37.947Z,15.75
2023-01-23T06:55:06.882Z,16.95
2023-01-23T06:57:35.081Z,15.63
2023-01-23T07:00:03.939Z,16.20
2023-01-23T07:02:32.432Z,16.40
2023-01-23T07:04:59.814Z,15.55
2023-01-23T07:07:27.446Z,16.00
2023-01-23T07:09:54.591Z,16.95
2023-01-23T07:12:24.534Z,16.08
2023-01-23T07:14:51.769Z,15.98
2023-01-23T07:17:24.163Z,15.75
2023-01-23T07:19:51.933Z,15.90
2023-01-23T07:22:21.125Z,16.52
2023-01-23T07:24:48.759Z,17.55
2023-01-23T07:27:15.969Z,16.33
2023-01-23T07:29:43.367Z,17.48
2023-01-23T07:32:11.324Z,16.33
2023-01-23T07:34:38.800Z,16.67
2023-01-23T07:37:06.116Z,16.98
2023-01-23T07:39:33.228Z,16.40
2023-01-23T07:42:00.567Z,16.88
2023-01-23T07:44:28.956Z,17.33
2023-01-23T07:46:57.182Z,16.38
2023-01-23T07:49:24.223Z,16.42
2023-01-23T07:51:51.260Z,17.27
2023-01-23T07:54:18.348Z,17.35
2023-01-23T07:56:45.399Z,17.17
2023-01-23T07:59:13.530Z,18.20
2023-01-23T08:01:40.581Z,17.42
2023-01-23T08:04:07.746Z,17.40
2023-01-23T08:06:34.971Z,16.88
2023-01-23T08:09:02.053Z,16.38
2023-01-23T08:11:29.123Z,16.65
2023-01-23T08:13:56.275Z,17.40
2023-01-23T08:16:23.348Z,16.65
2023-01-23T08:18:50.482Z,18.00
2023-01-23T08:21:17.925Z,17.05
2023-01-23T08:23:46.528Z,18.02
2023-01-23T08:26:16.086Z,16.02
2023-01-23T08:28:45.025Z,18.13
2023-01-23T08:31:13.684Z,16.60
2023-01-23T08:33:41.311Z,18.52
2023-01-23T08:36:11.500Z,18.02
2023-01-23T08:41:06.836Z,16.92
2023-01-23T08:43:34.036Z,17.50
2023-01-23T08:46:01.487Z,19.27
2023-01-23T08:48:29.192Z,18.15
2023-01-23T08:51:01.916Z,18.00
2023-01-23T08:53:30.131Z,17.92
2023-01-23T08:56:04.969Z,18.02
2023-01-23T08:58:32.136Z,18.05
2023-01-23T09:00:59.774Z,19.20
2023-01-23T09:03:27.807Z,19.23
2023-01-23T09:05:55.020Z,19.77
2023-01-23T09:08:21.986Z,19.33
2023-01-23T09:10:49.046Z,19.85
2023-01-23T09:13:16.368Z,21.02
2023-01-23T09:15:43.439Z,21.65
2023-01-23T09:18:10.568Z,20.67
2023-01-23T09:20:38.741Z,19.80
2023-01-23T09:23:05.838Z,20.73
2023-01-23T09:25:32.914Z,21.20
2023-01-23T09:27:59.968Z,21.85
2023-01-23T09:30:27.099Z,21.23
2023-01-23T09:32:54.304Z,20.05
2023-01-23T09:35:23.513Z,20.92
2023-01-23T09:38:00.102Z,22.30
2023-01-23T09:40:30.733Z,21.67
2023-01-23T09:43:03.447Z,21.75
2023-01-23T09:45:32.694Z,20.77
2023-01-23T09:48:23.059Z,22.07
2023-01-23T09:51:16.417Z,21.73
2023-01-23T09:53:43.561Z,21.58
2023-01-23T09:56:31.357Z,20.95
2023-01-23T09:59:01.254Z,21.88
2023-01-23T10:01:31.000Z,24.35
2023-01-23T10:04:02.497Z,21.60
2023-01-23T10:06:32.665Z,22.90
2023-01-23T10:09:28.177Z,22.08
2023-01-23T10:12:13.361Z,22.23
2023-01-23T10:14:58.957Z,24.38
2023-01-23T10:17:44.095Z,22.45
2023-01-23T10:20:20.083Z,22.52
2023-01-23T10:23:08.749Z,21.88
2023-01-23T10:25:40.518Z,22.45
2023-01-23T10:28:38.227Z,21.67
2023-01-23T10:31:16.404Z,21.60
2023-01-23T10:33:48.330Z,22.42
2023-01-23T10:36:47.787Z,20.63
2023-01-23T10:39:25.668Z,20.58
2023-01-23T10:42:01.495Z,21.08
2023-01-23T10:44:29.311Z,21.60
2023-01-23T10:47:03.828Z,20.50
2023-01-23T10:49:35.817Z,20.50
2023-01-23T10:52:03.207Z,21.15
2023-01-23T10:54:32.627Z,21.00
2023-01-23T10:57:03.278Z,20.55
2023-01-23T11:02:15.262Z,19.30
2023-01-23T11:04:44.524Z,21.03
2023-01-23T11:07:23.736Z,20.00
2023-01-23T11:09:56.684Z,21.58
2023-01-23T11:12:29.856Z,21.98
2023-01-23T11:15:26.350Z,21.85
2023-01-23T11:17:56.265Z,20.90
2023-01-23T11:20:36.104Z,22.40
2023-01-23T11:23:09.429Z,23.63
2023-01-23T11:25:48.547Z,23.13
2023-01-23T11:28:34.204Z,20.42
2023-01-23T11:31:14.694Z,21.08
2023-01-23T11:34:05.534Z,28.25
2023-01-23T11:36:58.534Z,35.70
2023-01-23T11:39:36.433Z,28.48
2023-01-23T11:42:04.421Z,21.52
2023-01-23T11:44:45.096Z,28.88
2023-01-23T11:47:40.767Z,24.00
2023-01-23T11:50:54.415Z,23.25
2023-01-23T11:53:41.859Z,22.58
2023-01-23T11:56:44.160Z,23.77
2023-01-23T11:59:53.140Z,27.85
2023-01-23T12:02:32.423Z,27.48
2023-01-23T12:05:06.152Z,25.07
2023-01-23T12:07:48.154Z,25.17
2023-01-23T12:10:22.237Z,23.00
2023-01-23T12:12:50.755Z,21.88
2023-01-23T12:15:42.166Z,22.58
2023-01-23T12:18:57.152Z,22.63
2023-01-23T12:21:44.181Z,22.10
2023-01-23T12:24:47.658Z,23.40
2023-01-23T12:27:27.075Z,23.15
2023-01-23T12:30:12.593Z,23.17
2023-01-23T12:33:12.926Z,23.98
2023-01-23T12:38:40.241Z,22.20
2023-01-23T12:41:10.097Z,27.42
2023-01-23T12:43:55.506Z,24.92
2023-01-23T12:46:34.281Z,25.55
2023-01-23T12:49:13.987Z,23.65
2023-01-23T12:51:46.197Z,24.67
2023-01-23T12:54:20.528Z,25.40
2023-01-23T12:59:30.649Z,23.85
2023-01-23T13:02:30.851Z,24.77
2023-01-23T13:05:07.958Z,24.63
2023-01-23T13:07:56.049Z,25.13
2023-01-23T13:11:03.574Z,26.17
2023-01-23T13:13:31.342Z,25.23
2023-01-23T13:16:09.350Z,26.08
2023-01-23T13:18:57.670Z,25.13
2023-01-23T13:21:43.836Z,25.65
2023-01-23T13:25:12.076Z,24.48
2023-01-23T13:27:42.229Z,24.75
2023-01-23T13:33:00.762Z,23.70
2023-01-23T13:35:40.058Z,25.90
2023-01-23T13:38:37.713Z,25.93
2023-01-23T13:41:04.891Z,25.25
2023-01-23T13:43:54.903Z,25.50
2023-01-23T14:21:56.313Z,28.23
2023-01-23T14:30:20.270Z,26.33
2023-01-23T14:32:47.408Z,25.13
2023-01-23T14:35:32.951Z,27.48
2023-01-23T14:38:05.332Z,24.58
2023-01-23T14:40:46.622Z,26.48
2023-01-23T14:46:13.001Z,27.13
2023-01-23T14:48:43.097Z,25.98
2023-01-23T14:51:30.466Z,25.67
2023-01-23T14:54:02.637Z,24.80
2023-01-23T14:56:36.357Z,26.15
2023-01-23T14:59:07.278Z,25.35
2023-01-23T15:01:36.034Z,28.40
2023-01-23T15:04:06.110Z,26.90
2023-01-23T15:06:36.155Z,28.40
2023-01-23T15:09:17.189Z,25.52
2023-01-23T15:11:45.283Z,27.08
2023-01-23T15:14:25.457Z,27.52
2023-01-23T15:19:26.672Z,25.85
2023-01-23T15:22:25.671Z,28.02
2023-01-23T15:24:53.050Z,27.75
2023-01-23T15:27:36.929Z,26.23
2023-01-23T15:30:31.814Z,29.40
2023-01-23T15:33:06.188Z,28.65
2023-01-23T15:35:38.333Z,29.70
2023-01-23T15:38:08.683Z,28.67
2023-01-23T15:40:38.399Z,28.90
2023-01-23T15:43:11.068Z,30.17
2023-01-23T15:45:38.297Z,30.75
2023-01-23T15:48:05.884Z,31.52
2023-01-23T15:50:33.056Z,32.05
2023-01-23T15:53:00.149Z,30.08
2023-01-23T15:55:28.919Z,28.10
2023-01-23T15:57:56.665Z,30.17
2023-01-23T16:00:27.295Z,29.48
2023-01-23T16:02:57.355Z,28.25
2023-01-23T16:05:27.507Z,29.58
2023-01-23T16:07:55.825Z,27.77
2023-01-23T16:10:26.242Z,29.05
2023-01-23T16:12:55.868Z,27.60
2023-01-23T16:15:28.108Z,27.58
2023-01-23T16:17:55.531Z,28.15
2023-01-23T16:20:38.693Z,29.60
2023-01-23T16:23:15.654Z,29.27
2023-01-23T16:25:45.656Z,28.05
2023-01-23T16:28:19.311Z,29.50
2023-01-23T16:30:47.632Z,28.77
2023-01-23T16:33:15.329Z,30.23
2023-01-23T16:35:42.808Z,28.98
2023-01-23T16:38:30.199Z,30.58
2023-01-23T16:40:59.860Z,29.52
2023-01-23T16:43:27.626Z,28.67
2023-01-23T16:45:56.610Z,28.25
2023-01-23T16:48:27.708Z,27.80
2023-01-23T16:51:17.604Z,28.50
2023-01-23T16:53:52.463Z,28.20
2023-01-23T16:56:28.905Z,28.33
2023-01-23T16:58:56.289Z,28.13
2023-01-23T17:01:24.503Z,27.33
2023-01-23T17:03:58.705Z,25.98
2023-01-23T17:06:26.149Z,26.42
2023-01-23T17:08:53.858Z,28.52
2023-01-23T17:11:24.829Z,27.15
2023-01-23T17:13:58.767Z,26.85
2023-01-23T17:16:28.018Z,28.25
2023-01-23T17:18:57.697Z,28.17
2023-01-23T17:21:32.052Z,26.02
2023-01-23T17:23:59.234Z,27.30
2023-01-23T17:26:26.534Z,27.35
2023-01-23T17:28:53.949Z,27.35
2023-01-23T17:31:25.215Z,26.27
2023-01-23T17:33:52.895Z,27.75
2023-01-23T17:36:20.177Z,28.08
2023-01-23T17:38:47.707Z,28.25
2023-01-23T17:41:16.078Z,29.25
2023-01-23T17:43:48.498Z,27.50
2023-01-23T17:46:39.753Z,28.23
2023-01-23T17:49:31.364Z,28.10
2023-01-23T17:52:00.339Z,27.15
2023-01-23T17:54:27.714Z,26.45
2023-01-23T17:56:54.938Z,29.52
2023-01-23T17:59:22.138Z,28.25
2023-01-23T18:01:49.252Z,26.60
2023-01-23T18:04:19.336Z,28.60
2023-01-23T18:06:47.005Z,28.48
2023-01-23T18:09:14.458Z,27.52
2023-01-23T18:11:49.771Z,26.88
2023-01-23T18:14:33.752Z,28.23
2023-01-23T18:17:01.081Z,27.13
2023-01-23T18:19:28.364Z,27.88
2023-01-23T18:21:57.348Z,27.85
2023-01-23T18:24:30.633Z,25.27
2023-01-23T18:27:27.534Z,26.67
2023-01-23T18:30:03.755Z,24.67
2023-01-23T18:33:15.739Z,25.45
2023-01-23T18:35:54.964Z,24.90
2023-01-23T18:39:00.539Z,25.50
2023-01-23T18:41:28.985Z,26.60
2023-01-23T18:44:07.196Z,25.63
2023-01-23T18:46:34.430Z,25.02
2023-01-23T18:49:01.800Z,25.27
2023-01-23T18:51:54.815Z,26.35
2023-01-23T18:54:43.669Z,26.77
2023-01-23T18:57:32.295Z,26.67
2023-01-23T19:00:12.910Z,26.27
2023-01-23T19:02:50.709Z,26.13
2023-01-23T19:05:23.245Z,25.23
2023-01-23T19:07:50.864Z,25.70
2023-01-23T19:10:21.610Z,25.35
2023-01-23T19:12:54.228Z,26.25
2023-01-23T19:15:35.484Z,24.42
2023-01-23T19:18:08.547Z,26.02
2023-01-23T19:21:05.383Z,25.73
2023-01-23T19:23:51.926Z,24.27
2023-01-23T19:26:20.018Z,24.90
2023-01-23T19:28:47.458Z,25.92
2023-01-23T19:31:21.016Z,25.65
2023-01-23T19:33:49.155Z,24.77
2023-01-23T19:36:16.347Z,25.67
2023-01-23T19:38:43.611Z,27.10
2023-01-23T19:41:19.815Z,25.60
2023-01-23T19:43:52.310Z,24.70
2023-01-23T19:46:20.825Z,26.92
2023-01-23T19:48:48.199Z,24.20
2023-01-23T19:51:18.526Z,24.67
2023-01-23T19:53:46.609Z,26.05
2023-01-23T19:56:16.139Z,25.30
2023-01-23T19:58:43.291Z,25.63
2023-01-23T20:01:22.399Z,26.17
2023-01-23T20:03:50.190Z,27.20
2023-01-23T20:06:17.199Z,26.30
2023-01-23T20:08:44.326Z,26.65
2023-01-23T20:11:12.306Z,27.75
2023-01-23T20:13:43.137Z,27.23
2023-01-23T20:16:17.595Z,25.25
2023-01-23T20:18:48.260Z,25.63
2023-01-23T20:21:17.116Z,25.95
2023-01-23T20:23:48.313Z,25.50
2023-01-23T20:26:17.481Z,24.42
2023-01-23T20:28:48.297Z,24.10
2023-01-23T20:31:16.018Z,24.55
2023-01-23T20:33:43.199Z,27.00
2023-01-23T20:36:11.349Z,25.98
2023-01-23T20:38:39.906Z,25.30
2023-01-23T20:41:15.248Z,27.67
2023-01-23T20:43:43.485Z,27.83
2023-01-23T20:46:12.098Z,27.88
2023-01-23T20:48:41.903Z,29.20
2023-01-23T20:51:09.809Z,24.15
2023-01-23T20:53:39.718Z,28.77
2023-01-23T20:56:11.279Z,27.35
2023-01-23T20:59:00.151Z,25.92
2023-01-23T21:01:30.214Z,26.92
2023-01-23T21:06:24.442Z,27.33
2023-01-23T21:08:51.546Z,26.55
2023-01-23T21:11:20.257Z,26.83
2023-01-23T21:13:53.753Z,27.40
2023-01-23T21:16:20.997Z,27.92
2023-01-23T21:18:48.469Z,26.50
2023-01-23T21:21:18.464Z,26.02
2023-01-23T21:23:49.007Z,27.75
2023-01-23T21:26:22.564Z,26.23
2023-01-23T21:28:51.019Z,25.45
2023-01-23T21:31:22.105Z,25.90
2023-01-23T21:33:50.039Z,26.88
2023-01-23T21:36:20.633Z,28.00
2023-01-23T21:38:48.248Z,26.85
2023-01-23T21:41:15.798Z,27.23
2023-01-23T21:43:43.037Z,26.42
2023-01-23T21:46:10.693Z,27.67
2023-01-23T21:48:37.910Z,28.13
2023-01-23T21:51:12.250Z,26.85
2023-01-23T21:53:42.862Z,27.70
2023-01-23T21:56:10.969Z,26.80
2023-01-23T21:58:38.198Z,25.05
2023-01-23T22:01:30.198Z,26.05
2023-01-23T22:04:09.315Z,27.63
2023-01-23T22:06:38.507Z,26.00
2023-01-23T22:09:07.744Z,25.95
2023-01-23T22:11:35.360Z,26.48
2023-01-23T22:14:02.800Z,26.13
2023-01-23T22:16:46.854Z,25.98
2023-01-23T22:19:16.803Z,25.15
2023-01-23T22:21:46.645Z,26.20
2023-01-23T22:24:15.340Z,26.02
2023-01-23T22:26:42.920Z,25.30
2023-01-23T22:29:12.338Z,26.98
2023-01-23T22:31:39.500Z,26.02
2023-01-23T22:34:06.640Z,27.27
2023-01-23T22:36:33.693Z,25.77
2023-01-23T22:39:00.901Z,25.88
2023-01-23T22:41:28.818Z,25.40
2023-01-23T22:43:56.891Z,26.75
2023-01-23T22:46:24.275Z,27.45
2023-01-23T22:48:51.915Z,26.20
2023-01-23T22:51:24.211Z,27.30
2023-01-23T22:53:52.453Z,25.23
2023-01-23T22:56:19.597Z,26.83
2023-01-23T22:58:47.781Z,26.42
2023-01-23T23:01:15.493Z,26.42
2023-01-23T23:03:43.269Z,25.70
2023-01-23T23:06:13.874Z,24.20
2023-01-23T23:08:41.254Z,25.35
2023-01-23T23:11:13.836Z,25.58
2023-01-23T23:13:41.289Z,25.42
2023-01-23T23:16:12.171Z,24.90
2023-01-23T23:18:39.505Z,25.40
2023-01-23T23:21:09.825Z,25.13
2023-01-23T23:23:37.116Z,24.40
2023-01-23T23:26:05.520Z,24.85
2023-01-23T23:28:32.991Z,24.75
2023-01-23T23:31:00.085Z,24.58
2023-01-23T23:33:27.847Z,24.90
2023-01-23T23:35:55.108Z,24.92
2023-01-23T23:38:22.343Z,25.52
2023-01-23T23:40:57.673Z,26.45
2023-01-23T23:43:25.005Z,25.65
2023-01-23T23:45:57.603Z,25.77
2023-01-23T23:48:26.050Z,26.65
2023-01-23T23:50:53.862Z,25.25
2023-01-23T23:53:21.127Z,24.33
2023-01-23T23:55:48.901Z,25.52
2023-01-23T23:58:16.352Z,24.95
